Time;durP1;ratioP1;P1;durP2;ratioP2;P2;SDS_P1;SDS_P2;PMS_P1;PMS_P2;Temp;Humidity;BMP_temperature;BMP_pressure;BME280_temperature;BME280_humidity;BME280_pressure;Samples;Min_cycle;Max_cycle;Signal;HPM_P1;HPM_P2
2022/04/04 00:01:12;;;;;;;9.93;3.08;;;2.80;99.90;;;;;;5030232;28;20511;-80
2022/04/04 00:03:38;;;;;;;7.93;3.05;;;2.80;99.90;;;;;;5030640;28;20045;-80
2022/04/04 00:06:04;;;;;;;8.73;3.70;;;2.70;99.90;;;;;;5030405;28;20049;-80
2022/04/04 00:08:30;;;;;;;8.50;3.30;;;2.80;99.90;;;;;;5013948;28;20072;-80
2022/04/04 00:10:56;;;;;;;8.73;3.55;;;2.70;99.90;;;;;;5030087;28;20041;-80
2022/04/04 00:13:21;;;;;;;9.57;3.83;;;2.80;99.90;;;;;;5030320;28;20091;-80
2022/04/04 00:15:47;;;;;;;7.93;3.05;;;2.70;99.90;;;;;;5030403;28;20091;-80
2022/04/04 00:18:13;;;;;;;8.43;3.05;;;2.70;99.90;;;;;;5013857;28;20449;-80
2022/04/04 00:20:39;;;;;;;7.20;2.80;;;2.70;99.90;;;;;;5030072;28;20059;-80
2022/04/04 00:23:06;;;;;;;7.93;3.03;;;2.70;99.90;;;;;;5030205;28;20053;-80
2022/04/04 00:25:32;;;;;;;9.52;3.33;;;2.70;99.90;;;;;;5030636;28;20094;-80
2022/04/04 00:27:57;;;;;;;8.85;3.05;;;2.70;99.90;;;;;;5030363;28;20041;-80
2022/04/04 00:30:23;;;;;;;9.43;3.80;;;2.70;99.90;;;;;;5029809;28;20042;-80
2022/04/04 00:32:48;;;;;;;7.40;2.80;;;2.70;99.90;;;;;;5013565;28;20558;-80
2022/04/04 00:35:14;;;;;;;8.57;3.72;;;2.70;99.90;;;;;;5030165;28;20041;-80
2022/04/04 00:37:40;;;;;;;7.20;3.38;;;2.70;99.90;;;;;;5027015;28;20037;-79
2022/04/04 00:40:07;;;;;;;7.72;3.08;;;2.70;99.90;;;;;;5029078;28;20132;-80
2022/04/04 00:42:33;;;;;;;8.52;3.53;;;2.70;99.90;;;;;;5030020;28;20048;-80
2022/04/04 00:44:59;;;;;;;9.50;3.67;;;2.70;99.90;;;;;;5030253;28;20565;-81
2022/04/04 00:47:25;;;;;;;9.65;3.33;;;2.70;99.90;;;;;;5030271;28;20073;-81
2022/04/04 00:49:51;;;;;;;8.85;3.35;;;2.70;99.90;;;;;;5029978;28;20095;-80
2022/04/04 00:52:17;;;;;;;9.75;3.78;;;2.70;99.90;;;;;;5032711;28;20053;-81
2022/04/04 00:54:42;;;;;;;9.02;3.47;;;2.80;99.90;;;;;;5033725;28;20029;-81
2022/04/04 00:57:09;;;;;;;9.35;4.07;;;2.80;99.90;;;;;;5033632;28;20044;-81
2022/04/04 00:59:36;;;;;;;9.93;3.78;;;2.80;99.90;;;;;;5033858;28;20449;-81
2022/04/04 01:02:02;;;;;;;8.43;3.28;;;2.80;99.90;;;;;;5033554;28;20038;-81
2022/04/04 01:04:28;;;;;;;9.60;3.85;;;2.90;99.90;;;;;;5033604;28;20058;-81
2022/04/04 01:06:54;;;;;;;8.40;3.30;;;2.90;99.90;;;;;;5033085;28;20049;-81
2022/04/04 01:09:19;;;;;;;9.20;3.50;;;2.90;99.90;;;;;;5032588;28;20045;-81
2022/04/04 01:12:07;;;;;;;7.95;3.85;;;3.00;99.90;;;;;;5033155;28;20037;-81
2022/04/04 01:14:36;;;;;;;8.90;3.78;;;3.00;99.90;;;;;;5017051;28;20069;-81
2022/04/04 01:17:04;;;;;;;9.85;4.30;;;3.00;99.90;;;;;;5033270;28;20053;-81
2022/04/04 01:19:29;;;;;;;9.50;4.40;;;3.10;99.90;;;;;;5033125;28;20047;-81
2022/04/04 01:21:55;;;;;;;9.73;4.10;;;3.10;99.90;;;;;;5032434;28;20124;-81
2022/04/04 01:24:22;;;;;;;10.73;5.10;;;3.20;99.90;;;;;;5032958;28;20068;-81
2022/04/04 01:26:48;;;;;;;11.85;5.63;;;3.20;99.90;;;;;;5032871;28;20124;-81
2022/04/04 01:29:14;;;;;;;9.27;5.00;;;3.30;99.90;;;;;;5033136;28;20044;-81
2022/04/04 01:31:40;;;;;;;12.55;6.57;;;3.30;99.90;;;;;;5032405;28;20042;-81
2022/04/04 01:34:05;;;;;;;11.90;6.97;;;3.30;99.90;;;;;;5016337;28;20034;-81
2022/04/04 01:36:31;;;;;;;10.57;6.13;;;3.30;99.90;;;;;;5032789;28;20411;-81
2022/04/04 01:38:57;;;;;;;10.68;5.95;;;3.40;99.90;;;;;;5032846;28;20168;-81
2022/04/04 01:41:22;;;;;;;13.13;7.15;;;3.40;99.90;;;;;;5032526;28;20180;-81
2022/04/04 01:43:48;;;;;;;11.27;7.40;;;3.40;99.90;;;;;;5015534;28;20040;-81
2022/04/04 01:46:26;;;;;;;12.70;7.22;;;3.40;99.90;;;;;;5032517;28;20041;-81
2022/04/04 01:48:53;;;;;;;10.40;5.78;;;3.40;99.90;;;;;;5016128;28;20053;-81
2022/04/04 01:51:20;;;;;;;13.07;6.80;;;3.50;99.90;;;;;;5032151;28;20406;-81
2022/04/04 01:53:45;;;;;;;13.65;7.28;;;3.50;99.90;;;;;;5016244;28;20042;-81
2022/04/04 01:56:12;;;;;;;13.23;6.90;;;3.50;99.90;;;;;;5032724;28;20120;-81
2022/04/04 01:58:38;;;;;;;11.25;6.80;;;3.60;99.90;;;;;;5032430;28;20048;-81
2022/04/04 02:01:10;;;;;;;9.82;5.20;;;3.60;99.90;;;;;;5032451;28;20131;-81
2022/04/04 02:03:36;;;;;;;9.52;5.78;;;3.60;99.90;;;;;;5031031;28;20037;-81
2022/04/04 02:06:02;;;;;;;11.77;6.93;;;3.70;99.90;;;;;;5032524;28;20034;-81
2022/04/04 02:08:28;;;;;;;13.63;6.18;;;3.60;99.90;;;;;;5015669;28;20049;-81
2022/04/04 02:10:55;;;;;;;9.57;5.20;;;3.70;99.90;;;;;;5032186;28;20045;-81
2022/04/04 02:13:23;;;;;;;13.43;5.88;;;3.70;99.90;;;;;;5015601;28;20037;-81
2022/04/04 02:15:50;;;;;;;12.20;6.95;;;3.70;99.90;;;;;;5032620;28;20395;-81
2022/04/04 02:18:15;;;;;;;10.98;6.35;;;3.70;99.90;;;;;;5032327;28;20526;-81
2022/04/04 02:20:41;;;;;;;10.68;5.47;;;3.70;99.90;;;;;;5031366;28;20068;-81
2022/04/04 02:23:07;;;;;;;13.13;6.28;;;3.70;99.90;;;;;;5032135;28;20041;-81
2022/04/04 02:25:32;;;;;;;13.52;7.28;;;3.70;99.90;;;;;;5031925;28;20075;-81
2022/04/04 02:27:58;;;;;;;12.57;7.38;;;3.70;99.90;;;;;;5031935;28;20128;-81
2022/04/04 02:30:24;;;;;;;15.25;6.82;;;3.70;99.90;;;;;;5031832;28;20422;-81
2022/04/04 02:32:49;;;;;;;13.00;6.97;;;3.70;99.90;;;;;;5031770;28;20046;-81
2022/04/04 02:35:15;;;;;;;13.88;7.57;;;3.70;99.90;;;;;;5032038;28;20044;-81
2022/04/04 02:37:41;;;;;;;12.05;7.22;;;3.70;99.90;;;;;;5031773;28;20107;-81
2022/04/04 02:40:07;;;;;;;15.70;8.07;;;3.70;99.90;;;;;;5032006;28;20132;-81
2022/04/04 02:42:32;;;;;;;13.02;7.43;;;3.70;99.90;;;;;;5030310;28;20560;-81
2022/04/04 02:44:58;;;;;;;14.90;8.23;;;3.70;99.90;;;;;;5031793;28;20037;-81
2022/04/04 02:47:24;;;;;;;16.75;7.82;;;3.70;99.90;;;;;;5031838;28;20049;-81
2022/04/04 02:49:49;;;;;;;14.23;8.30;;;3.70;99.90;;;;;;5031344;28;20132;-81
2022/04/04 02:52:15;;;;;;;14.68;8.18;;;3.80;99.90;;;;;;5031384;28;20041;-81
2022/04/04 02:54:40;;;;;;;16.23;7.40;;;3.80;99.90;;;;;;5031653;28;20048;-81
2022/04/04 02:57:06;;;;;;;16.50;8.82;;;3.80;99.90;;;;;;5031154;28;20052;-81
2022/04/04 02:59:32;;;;;;;17.65;8.80;;;3.80;99.90;;;;;;5031070;28;20512;-80
2022/04/04 03:01:57;;;;;;;14.73;8.23;;;3.80;99.90;;;;;;5031648;28;20048;-81
2022/04/04 03:04:23;;;;;;;15.73;8.80;;;3.80;99.90;;;;;;5031475;28;20506;-81
2022/04/04 03:06:49;;;;;;;15.82;9.07;;;3.90;99.90;;;;;;5014807;28;20118;-81
2022/04/04 03:09:15;;;;;;;16.48;9.15;;;3.90;99.90;;;;;;5031600;28;20099;-81
2022/04/04 03:11:40;;;;;;;16.25;9.15;;;3.90;99.90;;;;;;5030429;28;20103;-81
2022/04/04 03:14:07;;;;;;;14.82;9.15;;;3.90;99.90;;;;;;5031086;28;20049;-81
2022/04/04 03:16:32;;;;;;;16.67;10.13;;;4.00;99.90;;;;;;5014633;28;20495;-81
2022/04/04 03:18:59;;;;;;;16.17;9.10;;;4.00;99.90;;;;;;5031483;28;20033;-81
2022/04/04 03:21:27;;;;;;;17.58;8.90;;;4.00;99.90;;;;;;5014434;28;20037;-81
2022/04/04 03:23:53;;;;;;;16.95;9.57;;;4.10;99.90;;;;;;5031420;28;20129;-81
2022/04/04 03:26:19;;;;;;;15.57;9.40;;;4.10;99.90;;;;;;5031030;28;20037;-81
2022/04/04 03:28:46;;;;;;;14.27;7.95;;;4.10;99.90;;;;;;5030932;28;20103;-81
2022/04/04 03:31:12;;;;;;;15.20;9.38;;;4.10;99.90;;;;;;5030522;28;20506;-81
2022/04/04 03:33:38;;;;;;;16.88;9.98;;;4.10;99.90;;;;;;5014164;28;20048;-81
2022/04/04 03:36:04;;;;;;;16.83;9.60;;;4.10;99.90;;;;;;5030799;28;20033;-81
2022/04/04 03:38:30;;;;;;;14.40;7.90;;;4.10;99.90;;;;;;5030447;28;20124;-81
2022/04/04 03:40:56;;;;;;;18.90;9.88;;;4.10;99.90;;;;;;5030185;28;20154;-81
2022/04/04 03:43:22;;;;;;;15.50;8.65;;;4.20;99.90;;;;;;5030820;28;20041;-81
2022/04/04 03:45:48;;;;;;;15.40;8.48;;;4.20;99.90;;;;;;5014060;28;20061;-81
2022/04/04 03:48:14;;;;;;;15.63;8.88;;;4.20;99.90;;;;;;5030955;28;20071;-81
2022/04/04 03:50:40;;;;;;;14.88;7.75;;;4.30;99.90;;;;;;5029903;28;20486;-81
2022/04/04 03:53:06;;;;;;;15.00;9.65;;;4.30;99.90;;;;;;5013982;28;20037;-81
2022/04/04 03:55:37;;;;;;;17.90;9.80;;;4.30;99.90;;;;;;5030330;28;20056;-81
2022/04/04 03:58:04;;;;;;;18.20;9.45;;;4.30;99.90;;;;;;5030342;28;20525;-81
2022/04/04 04:00:30;;;;;;;15.65;9.27;;;4.30;99.90;;;;;;5030218;28;20176;-81
2022/04/04 04:02:56;;;;;;;13.60;9.00;;;4.40;99.90;;;;;;5029883;28;20550;-81
2022/04/04 04:05:22;;;;;;;14.18;8.60;;;4.40;99.90;;;;;;5030455;28;20529;-81
2022/04/04 04:07:49;;;;;;;17.50;9.23;;;4.40;99.90;;;;;;5029869;28;20049;-81
2022/04/04 04:10:14;;;;;;;15.00;8.02;;;4.40;99.90;;;;;;5030057;28;20045;-81
2022/04/04 04:12:41;;;;;;;15.70;9.27;;;4.50;99.90;;;;;;5013484;28;20045;-81
2022/04/04 04:15:09;;;;;;;13.45;7.65;;;4.50;99.90;;;;;;5030520;28;20069;-81
2022/04/04 04:17:35;;;;;;;18.73;10.15;;;4.50;99.90;;;;;;5029973;28;20152;-81
2022/04/04 04:23:05;;;;;;;14.55;8.35;;;4.60;99.90;;;;;;5030034;28;20140;-81
2022/04/04 04:25:32;;;;;;;15.77;9.40;;;4.60;99.90;;;;;;5030155;28;20057;-81
2022/04/04 04:28:01;;;;;;;18.63;10.48;;;4.70;99.90;;;;;;5034596;28;20046;-81
2022/04/04 04:30:27;;;;;;;13.70;7.35;;;4.70;99.90;;;;;;5033898;28;20048;-81
2022/04/04 04:32:54;;;;;;;17.02;9.43;;;4.70;99.90;;;;;;5033922;28;20557;-81
2022/04/04 04:35:20;;;;;;;14.38;8.07;;;4.70;99.90;;;;;;5034194;28;20549;-81
2022/04/04 04:37:47;;;;;;;16.23;8.82;;;4.70;99.90;;;;;;5034447;28;20138;-81
2022/04/04 04:40:14;;;;;;;13.73;9.20;;;4.80;99.90;;;;;;5017483;28;20056;-81
2022/04/04 04:42:42;;;;;;;14.82;7.72;;;4.80;99.90;;;;;;5033889;28;20392;-80
2022/04/04 04:45:07;;;;;;;16.38;9.82;;;4.80;99.90;;;;;;5034243;28;20045;-81
2022/04/04 04:47:33;;;;;;;15.88;9.40;;;4.80;99.90;;;;;;5033613;28;20573;-81
2022/04/04 04:50:01;;;;;;;15.55;10.05;;;4.80;99.90;;;;;;5033921;28;20052;-81
2022/04/04 04:52:27;;;;;;;14.55;9.82;;;4.80;99.90;;;;;;5016875;28;20080;-81
2022/04/04 04:54:53;;;;;;;16.25;9.80;;;4.80;99.90;;;;;;5034194;28;20511;-81
2022/04/04 04:57:19;;;;;;;19.95;10.70;;;4.70;99.90;;;;;;5033907;28;20033;-81
2022/04/04 04:59:45;;;;;;;14.73;9.98;;;4.70;99.90;;;;;;5033658;28;20030;-80
2022/04/04 05:02:11;;;;;;;16.48;10.60;;;4.70;99.90;;;;;;5016647;28;20068;-80
2022/04/04 05:04:36;;;;;;;15.32;11.05;;;4.60;99.90;;;;;;5017426;28;20376;-80
2022/04/04 05:07:02;;;;;;;16.83;11.05;;;4.60;99.90;;;;;;5033399;28;20045;-80
2022/04/04 05:09:27;;;;;;;15.55;9.80;;;4.60;99.90;;;;;;5033306;28;20048;-80
2022/04/04 05:11:53;;;;;;;16.25;8.05;;;4.60;99.90;;;;;;5016786;28;20407;-80
2022/04/04 05:14:19;;;;;;;15.07;9.25;;;4.60;99.90;;;;;;5033612;28;20387;-80
2022/04/04 05:16:48;;;;;;;16.92;10.75;;;4.60;99.90;;;;;;5016972;28;20033;-80
2022/04/04 05:19:19;;;;;;;15.07;9.65;;;4.60;99.90;;;;;;5033213;28;20044;-80
2022/04/04 05:21:45;;;;;;;15.38;9.75;;;4.60;99.90;;;;;;5032450;28;20045;-80
2022/04/04 05:24:11;;;;;;;17.15;10.50;;;4.60;99.90;;;;;;5032742;28;20033;-80
2022/04/04 05:26:36;;;;;;;16.33;9.55;;;4.60;99.90;;;;;;5033385;28;20045;-80
2022/04/04 05:29:03;;;;;;;15.38;9.77;;;4.60;99.90;;;;;;5016575;28;20044;-80
2022/04/04 05:31:30;;;;;;;17.77;10.75;;;4.70;99.90;;;;;;5032704;28;20048;-80
2022/04/04 05:33:57;;;;;;;14.73;9.15;;;4.70;99.90;;;;;;5033091;28;20529;-80
2022/04/04 05:36:24;;;;;;;14.88;9.88;;;4.70;99.90;;;;;;5016487;28;20509;-80
2022/04/04 05:38:50;;;;;;;14.95;8.73;;;4.70;99.90;;;;;;5033037;28;20075;-80
2022/04/04 05:41:19;;;;;;;14.10;8.10;;;4.80;99.90;;;;;;5016337;28;20064;-80
2022/04/04 05:43:47;;;;;;;14.32;9.02;;;4.80;99.90;;;;;;5016157;28;20045;-80
2022/04/04 05:46:13;;;;;;;14.43;9.20;;;4.80;99.90;;;;;;5033087;28;20524;-80
2022/04/04 05:48:39;;;;;;;13.63;8.75;;;4.80;99.90;;;;;;5032748;28;20042;-80
2022/04/04 05:51:05;;;;;;;12.65;7.65;;;4.80;99.90;;;;;;5026145;28;20033;-80
2022/04/04 05:53:30;;;;;;;17.65;9.23;;;4.90;99.90;;;;;;5032715;28;20041;-80
2022/04/04 05:55:56;;;;;;;13.85;8.27;;;4.90;99.90;;;;;;5016342;28;20040;-80
2022/04/04 05:58:22;;;;;;;16.63;8.65;;;4.90;99.90;;;;;;5032224;28;20033;-80
2022/04/04 06:00:48;;;;;;;14.88;8.75;;;4.90;99.90;;;;;;5032359;28;20064;-80
2022/04/04 06:03:14;;;;;;;13.60;7.93;;;4.90;99.90;;;;;;5033044;28;20083;-80
2022/04/04 06:05:41;;;;;;;15.38;8.95;;;4.90;99.90;;;;;;5032740;28;20041;-80
2022/04/04 06:08:07;;;;;;;15.98;9.45;;;5.00;99.90;;;;;;5032620;28;20046;-81
2022/04/04 06:10:33;;;;;;;14.35;8.75;;;5.00;99.90;;;;;;5032115;28;20041;-81
2022/04/04 06:12:58;;;;;;;13.70;9.55;;;5.00;99.90;;;;;;5032291;28;20040;-81
2022/04/04 06:15:24;;;;;;;14.88;8.38;;;5.00;99.90;;;;;;5032487;28;20497;-81
2022/04/04 06:17:50;;;;;;;14.23;8.27;;;5.00;99.90;;;;;;5032236;28;20511;-80
2022/04/04 06:20:15;;;;;;;13.18;8.18;;;5.10;99.90;;;;;;5031979;28;20124;-80
2022/04/04 06:22:41;;;;;;;14.10;8.35;;;5.10;99.90;;;;;;5032285;28;20041;-80
2022/04/04 06:25:08;;;;;;;14.85;8.13;;;5.10;99.90;;;;;;5032041;28;20128;-80
2022/04/04 06:27:35;;;;;;;14.07;7.43;;;5.20;99.90;;;;;;5032078;28;20051;-80
2022/04/04 06:30:00;;;;;;;12.70;7.57;;;5.20;99.90;;;;;;5030353;28;20041;-80
2022/04/04 06:32:26;;;;;;;14.90;8.57;;;5.30;99.90;;;;;;5014856;28;20044;-81
2022/04/04 06:34:52;;;;;;;12.00;7.80;;;5.40;99.90;;;;;;5031482;28;20141;-81
2022/04/04 06:37:18;;;;;;;12.90;7.88;;;5.50;99.90;;;;;;5015267;28;20463;-82
2022/04/04 06:39:44;;;;;;;13.57;6.63;;;5.50;99.90;;;;;;5029736;28;20030;-81
2022/04/04 06:42:09;;;;;;;12.52;6.75;;;5.50;99.90;;;;;;5030860;28;20037;-82
2022/04/04 06:44:35;;;;;;;12.50;6.13;;;5.60;99.90;;;;;;5030937;28;20038;-81
2022/04/04 06:47:00;;;;;;;12.93;7.03;;;5.60;99.90;;;;;;5031130;28;20077;-81
2022/04/04 06:49:26;;;;;;;13.20;5.80;;;5.70;99.90;;;;;;5014360;28;20067;-81
2022/04/04 06:51:52;;;;;;;14.20;7.25;;;5.70;99.90;;;;;;5030714;28;20042;-81
2022/04/04 06:54:19;;;;;;;14.57;7.30;;;5.80;99.90;;;;;;5031377;28;20103;-81
2022/04/04 06:56:47;;;;;;;13.13;7.40;;;5.90;99.90;;;;;;5030856;28;20522;-81
2022/04/04 06:59:13;;;;;;;12.18;6.55;;;5.90;99.90;;;;;;5031116;28;20135;-81
2022/04/04 07:01:39;;;;;;;14.02;6.25;;;6.00;99.90;;;;;;5030790;28;20044;-81
2022/04/04 07:04:04;;;;;;;13.95;5.82;;;6.00;99.90;;;;;;5031401;28;20045;-81
2022/04/04 07:06:30;;;;;;;13.43;7.68;;;6.00;99.90;;;;;;5030953;28;20040;-81
2022/04/04 07:08:56;;;;;;;13.70;7.22;;;6.10;99.90;;;;;;5030899;28;20391;-81
2022/04/04 07:11:22;;;;;;;12.18;6.30;;;6.10;99.90;;;;;;5030719;28;20052;-81
2022/04/04 07:13:49;;;;;;;13.50;7.00;;;6.10;99.90;;;;;;5014712;28;20088;-80
2022/04/04 07:16:16;;;;;;;14.02;6.35;;;6.10;99.90;;;;;;5014571;28;20041;-81
2022/04/04 07:18:41;;;;;;;12.55;6.07;;;6.00;99.90;;;;;;5031213;28;20041;-81
2022/04/04 07:21:07;;;;;;;12.48;6.00;;;6.00;99.90;;;;;;5014343;28;20037;-81
2022/04/04 07:23:33;;;;;;;11.70;6.18;;;6.00;99.90;;;;;;5030790;28;20041;-82
2022/04/04 07:25:58;;;;;;;11.25;6.30;;;6.00;99.90;;;;;;5014387;28;20057;-82
2022/04/04 07:28:24;;;;;;;11.60;6.20;;;6.00;99.90;;;;;;5030629;28;20426;-81
2022/04/04 07:30:52;;;;;;;14.15;8.00;;;6.00;99.90;;;;;;5030259;28;20418;-81
2022/04/04 07:33:18;;;;;;;15.82;7.35;;;5.90;99.90;;;;;;5030622;28;20053;-82
2022/04/04 07:35:45;;;;;;;12.82;7.13;;;5.90;99.90;;;;;;5030831;28;20037;-81
2022/04/04 07:38:11;;;;;;;11.48;5.97;;;5.90;99.90;;;;;;5030613;28;20044;-80
2022/04/04 07:40:37;;;;;;;12.20;6.90;;;5.80;99.90;;;;;;5013945;28;20041;-81
2022/04/04 07:43:03;;;;;;;13.68;8.15;;;5.80;99.90;;;;;;5030713;28;20043;-81
2022/04/04 07:45:30;;;;;;;13.90;7.93;;;5.80;99.90;;;;;;5030463;28;20048;-81
2022/04/04 07:47:58;;;;;;;12.85;7.82;;;5.80;99.90;;;;;;5030418;28;20045;-81
2022/04/04 07:50:23;;;;;;;14.63;8.13;;;5.80;99.90;;;;;;5029905;28;20438;-81
2022/04/04 07:52:49;;;;;;;13.65;7.03;;;5.70;99.90;;;;;;5013440;28;20037;-81
2022/04/04 07:55:15;;;;;;;13.30;8.02;;;5.70;99.90;;;;;;5013357;28;20045;-81
2022/04/04 07:57:42;;;;;;;12.85;7.30;;;5.70;99.90;;;;;;5031723;28;20479;-81
2022/04/04 08:00:10;;;;;;;13.10;7.40;;;5.70;99.90;;;;;;5030054;28;20073;-81
2022/04/04 08:02:36;;;;;;;12.32;8.40;;;5.70;99.90;;;;;;5029834;28;20458;-81
2022/04/04 08:05:04;;;;;;;12.27;8.52;;;5.70;99.90;;;;;;5030288;28;20046;-81
2022/04/04 08:07:30;;;;;;;12.15;7.30;;;5.70;99.90;;;;;;5030054;28;20442;-81
2022/04/04 08:09:56;;;;;;;13.20;8.02;;;5.70;99.90;;;;;;5029863;28;20110;-81
2022/04/04 08:12:28;;;;;;;19.70;12.25;;;5.70;99.90;;;;;;5029714;28;20041;-81
2022/04/04 08:14:54;;;;;;;14.67;8.57;;;5.70;99.90;;;;;;5013775;28;20128;-81
2022/04/04 08:17:19;;;;;;;14.00;9.57;;;5.70;99.90;;;;;;5030445;28;20684;-81
2022/04/04 08:19:45;;;;;;;14.75;9.60;;;5.60;99.90;;;;;;5029837;28;20536;-81
2022/04/04 08:22:11;;;;;;;14.10;8.38;;;5.60;99.90;;;;;;5030160;28;20045;-81
2022/04/04 08:24:36;;;;;;;13.25;8.90;;;5.60;99.90;;;;;;5013759;28;20491;-81
2022/04/04 08:27:02;;;;;;;16.33;10.75;;;5.60;99.90;;;;;;5013566;28;20041;-81
2022/04/04 08:29:28;;;;;;;14.98;8.88;;;5.60;99.90;;;;;;5029810;28;20068;-81
2022/04/04 08:31:53;;;;;;;14.20;9.02;;;5.60;99.90;;;;;;5029131;28;20033;-81
2022/04/04 08:34:19;;;;;;;14.55;10.27;;;5.60;99.90;;;;;;5029926;28;20459;-81
2022/04/04 08:36:45;;;;;;;15.07;9.20;;;5.60;99.90;;;;;;5029663;28;20049;-81
2022/04/04 08:39:11;;;;;;;13.23;8.50;;;5.60;99.90;;;;;;5030158;28;20517;-82
2022/04/04 08:41:38;;;;;;;14.02;8.93;;;5.60;99.90;;;;;;5029639;28;20080;-81
2022/04/04 08:44:05;;;;;;;17.70;11.27;;;5.50;99.90;;;;;;5030114;28;20179;-81
2022/04/04 08:46:33;;;;;;;14.45;9.32;;;5.50;99.90;;;;;;5030199;28;20045;-81
2022/04/04 08:49:00;;;;;;;14.65;8.98;;;5.60;99.90;;;;;;5029614;28;20045;-81
2022/04/04 08:51:26;;;;;;;13.25;9.65;;;5.60;99.90;;;;;;5028846;28;20044;-81
2022/04/04 08:53:53;;;;;;;14.75;10.30;;;5.60;99.90;;;;;;5013434;28;20091;-81
2022/04/04 08:56:24;;;;;;;14.60;8.90;;;5.60;99.90;;;;;;5013226;28;20121;-81
2022/04/04 08:58:51;;;;;;;16.60;11.25;;;5.60;99.90;;;;;;5029223;28;20041;-82
2022/04/04 09:01:21;;;;;;;20.17;11.02;;;5.60;99.90;;;;;;5029301;28;20041;-80
2022/04/04 09:04:01;;;;;;;12.57;8.57;;;5.60;99.90;;;;;;5028875;28;20041;-81
2022/04/04 09:06:28;;;;;;;13.90;8.15;;;5.60;99.90;;;;;;5029758;28;20048;-81
2022/04/04 09:08:55;;;;;;;12.52;7.40;;;5.70;99.90;;;;;;5029441;28;20049;-81
2022/04/04 09:11:21;;;;;;;11.52;7.38;;;5.70;99.90;;;;;;5029111;28;20514;-82
2022/04/04 09:14:04;;;;;;;11.95;7.85;;;5.80;99.90;;;;;;5033045;28;20041;-81
2022/04/04 09:16:29;;;;;;;11.02;5.07;;;5.80;99.90;;;;;;5016800;28;20143;-81
2022/04/04 09:18:55;;;;;;;10.18;5.68;;;5.90;99.90;;;;;;5033375;28;20115;-81
2022/04/04 09:21:20;;;;;;;9.52;5.93;;;5.90;99.90;;;;;;5016400;28;20041;-81
2022/04/04 09:23:46;;;;;;;10.48;4.88;;;6.00;99.90;;;;;;5033662;28;20045;-81
2022/04/04 09:26:29;;;;;;;8.98;5.75;;;6.00;99.90;;;;;;5033268;28;20499;-81
2022/04/04 09:29:01;;;;;;;9.50;4.40;;;6.00;99.90;;;;;;5016647;28;20045;-81
2022/04/04 09:31:27;;;;;;;10.70;5.47;;;6.00;99.90;;;;;;5032470;28;20045;-81
2022/04/04 09:33:53;;;;;;;8.73;4.40;;;6.00;99.90;;;;;;5033152;28;20459;-81
2022/04/04 09:36:19;;;;;;;9.73;5.03;;;6.00;99.90;;;;;;5033337;28;20045;-81
2022/04/04 09:39:14;;;;;;;8.77;4.72;;;6.00;99.90;;;;;;5032849;28;20510;-80
2022/04/04 09:41:40;;;;;;;10.63;5.38;;;5.90;99.90;;;;;;4994840;28;20081;-81
2022/04/04 09:44:08;;;;;;;10.18;6.40;;;5.90;99.90;;;;;;4995863;28;20073;-81
2022/04/04 09:46:36;;;;;;;12.82;5.82;;;5.90;99.90;;;;;;4995474;28;20124;-81
2022/04/04 09:49:14;;;;;;;10.80;5.53;;;5.90;99.90;;;;;;4995145;28;20034;-81
2022/04/04 09:51:50;;;;;;;10.43;6.30;;;5.90;99.90;;;;;;4978400;28;20049;-81
2022/04/04 09:54:28;;;;;;;9.30;5.32;;;5.90;99.90;;;;;;4995384;28;20160;-81
2022/04/04 09:57:12;;;;;;;8.68;4.47;;;5.90;99.90;;;;;;4995378;28;20054;-81
2022/04/04 09:59:39;;;;;;;8.23;4.65;;;5.90;99.90;;;;;;4994658;28;20555;-81
2022/04/04 10:02:05;;;;;;;8.73;5.13;;;5.90;99.90;;;;;;4995455;28;20105;-81
2022/04/04 10:04:34;;;;;;;9.65;5.32;;;6.00;99.90;;;;;;4995186;28;20530;-81
2022/04/04 10:07:06;;;;;;;10.00;5.43;;;6.00;99.90;;;;;;4994950;28;20042;-81
2022/04/04 10:09:32;;;;;;;10.48;5.38;;;6.00;99.90;;;;;;4994637;28;20543;-81
2022/04/04 10:11:58;;;;;;;10.63;5.68;;;6.00;99.90;;;;;;4994378;28;20046;-81
2022/04/04 10:14:25;;;;;;;9.13;4.80;;;6.00;99.90;;;;;;4995016;28;20048;-81
2022/04/04 10:16:54;;;;;;;7.60;3.85;;;6.00;99.90;;;;;;4978776;28;20547;-80
2022/04/04 10:19:21;;;;;;;6.63;3.72;;;6.00;99.90;;;;;;5032450;28;20041;-81
2022/04/04 10:21:47;;;;;;;8.43;3.72;;;6.00;99.90;;;;;;5032003;28;20033;-80
2022/04/04 10:24:13;;;;;;;6.55;3.40;;;6.00;99.90;;;;;;5030994;28;20529;-80
2022/04/04 10:26:40;;;;;;;7.50;3.25;;;6.00;99.90;;;;;;5031849;28;20041;-80
2022/04/04 10:29:16;;;;;;;6.78;2.63;;;6.00;99.90;;;;;;5032108;28;20495;-81
2022/04/04 10:31:42;;;;;;;7.65;3.22;;;6.10;99.90;;;;;;5031359;28;20037;-81
2022/04/04 10:34:17;;;;;;;7.15;3.42;;;6.10;99.90;;;;;;5032224;28;20111;-81
2022/04/04 10:36:57;;;;;;;6.72;2.88;;;6.00;99.90;;;;;;5031815;28;20042;-80
2022/04/04 10:39:33;;;;;;;7.75;3.47;;;6.10;99.90;;;;;;5015417;28;20091;-80
2022/04/04 10:41:59;;;;;;;7.40;3.28;;;6.10;99.90;;;;;;5031531;28;20051;-81
2022/04/04 10:44:47;;;;;;;6.75;2.75;;;6.10;99.90;;;;;;5030322;28;20041;-80
2022/04/04 10:47:27;;;;;;;7.40;3.38;;;6.10;99.90;;;;;;5023863;28;20048;-80
2022/04/04 10:49:55;;;;;;;6.45;2.75;;;6.20;99.90;;;;;;5035130;28;20509;-81
2022/04/04 10:52:39;;;;;;;7.78;3.35;;;6.20;99.90;;;;;;5032093;28;20054;-80
2022/04/04 10:55:43;;;;;;;7.20;2.83;;;6.30;99.90;;;;;;5031568;28;20526;-81
2022/04/04 10:58:15;;;;;;;7.43;3.35;;;6.30;99.90;;;;;;5014732;28;20602;-81
2022/04/04 11:00:56;;;;;;;8.38;3.35;;;6.30;99.90;;;;;;5014941;28;20041;-81
2022/04/04 11:03:39;;;;;;;6.55;2.95;;;6.30;99.90;;;;;;5014909;28;20490;-81
2022/04/04 11:09:03;;;;;;;7.97;3.22;;;6.30;99.90;;;;;;5031236;28;20053;-81
2022/04/04 11:12:09;;;;;;;10.77;3.40;;;6.30;99.90;;;;;;5030400;28;20042;-81
2022/04/04 11:14:38;;;;;;;7.88;3.67;;;6.30;99.90;;;;;;5029907;28;20069;-81
2022/04/04 11:17:07;;;;;;;6.93;2.97;;;6.30;99.90;;;;;;5014619;28;20038;-81
2022/04/04 11:20:10;;;;;;;7.18;3.33;;;6.30;99.90;;;;;;5030869;28;20051;-81
2022/04/04 11:22:42;;;;;;;7.00;3.28;;;6.40;99.90;;;;;;5031059;28;20048;-81
2022/04/04 11:25:14;;;;;;;7.10;3.17;;;6.40;99.90;;;;;;5014314;28;20049;-81
2022/04/04 11:27:40;;;;;;;8.60;4.20;;;6.40;99.90;;;;;;5031088;28;20123;-81
2022/04/04 11:30:08;;;;;;;6.53;2.85;;;6.40;99.90;;;;;;5030207;28;20175;-81
2022/04/04 11:32:38;;;;;;;7.22;3.60;;;6.40;99.90;;;;;;5030613;28;20053;-81
2022/04/04 11:35:22;;;;;;;7.63;3.58;;;6.50;99.90;;;;;;5030460;28;20034;-82
2022/04/04 11:37:48;;;;;;;6.70;3.22;;;6.50;99.90;;;;;;5031176;28;20048;-81
2022/04/04 11:40:18;;;;;;;7.97;3.72;;;6.50;99.90;;;;;;5030356;28;20041;-81
2022/04/04 11:42:47;;;;;;;7.07;3.30;;;6.50;99.90;;;;;;5030686;28;20045;-81
2022/04/04 11:45:21;;;;;;;8.07;3.17;;;6.60;99.90;;;;;;5014258;28;20073;-81
2022/04/04 11:47:51;;;;;;;6.60;3.00;;;6.50;99.90;;;;;;5030681;28;20565;-81
2022/04/04 11:50:17;;;;;;;7.10;3.30;;;6.60;99.90;;;;;;5013562;28;20468;-81
2022/04/04 11:52:48;;;;;;;6.85;3.15;;;6.60;99.90;;;;;;5029925;28;20080;-81
2022/04/04 11:55:16;;;;;;;6.43;3.50;;;6.60;99.90;;;;;;5030789;28;20403;-81
2022/04/04 11:57:46;;;;;;;5.18;2.35;;;6.70;99.90;;;;;;5030599;28;20037;-81
2022/04/04 12:00:14;;;;;;;7.75;3.95;;;6.70;99.90;;;;;;5030071;28;20127;-81
2022/04/04 12:02:42;;;;;;;6.20;2.80;;;6.70;99.90;;;;;;5030208;28;20057;-82
2022/04/04 12:05:12;;;;;;;7.35;3.38;;;6.70;99.90;;;;;;5030596;28;20148;-81
2022/04/04 12:07:37;;;;;;;6.68;2.88;;;6.70;99.90;;;;;;5030418;28;20041;-81
2022/04/04 12:10:04;;;;;;;5.82;2.70;;;6.80;99.90;;;;;;5029623;28;20106;-81
2022/04/04 12:12:31;;;;;;;6.00;3.17;;;6.80;99.90;;;;;;5030146;28;20080;-81
2022/04/04 12:14:57;;;;;;;7.60;3.30;;;6.80;99.90;;;;;;5030325;28;20402;-81
2022/04/04 12:17:26;;;;;;;7.10;3.17;;;6.90;99.90;;;;;;5030558;28;20056;-81
2022/04/04 12:19:52;;;;;;;6.50;3.50;;;6.90;99.90;;;;;;5013539;28;20138;-81
2022/04/04 12:25:10;;;;;;;6.50;3.17;;;7.00;99.90;;;;;;5030286;28;20049;-81
2022/04/04 12:27:57;;;;;;;6.93;2.92;;;7.10;99.90;;;;;;5029977;28;20033;-81
2022/04/04 12:30:49;;;;;;;6.15;3.10;;;7.10;99.90;;;;;;5029696;28;20038;-81
2022/04/04 12:33:16;;;;;;;5.97;2.85;;;7.10;99.90;;;;;;5026933;28;20138;-81
2022/04/04 12:35:47;;;;;;;6.97;2.97;;;7.10;99.90;;;;;;5029980;28;20037;-81
2022/04/04 12:38:31;;;;;;;4.97;2.45;;;7.10;99.90;;;;;;5013917;28;20041;-81
2022/04/04 12:41:22;;;;;;;6.40;3.03;;;7.10;99.90;;;;;;5029602;28;20042;-81
2022/04/04 12:44:02;;;;;;;5.45;2.50;;;7.10;99.90;;;;;;5027187;28;20060;-81
2022/04/04 12:46:30;;;;;;;5.38;2.33;;;7.10;99.90;;;;;;5029913;28;20074;-81
2022/04/04 12:49:14;;;;;;;5.72;2.35;;;7.10;99.90;;;;;;5034082;28;20045;-81
2022/04/04 12:51:50;;;;;;;6.28;2.85;;;7.10;99.90;;;;;;5033231;28;20045;-81
2022/04/04 12:54:25;;;;;;;5.38;2.53;;;7.10;99.90;;;;;;5033658;28;20560;-81
2022/04/04 12:56:50;;;;;;;6.22;3.20;;;7.10;99.90;;;;;;5034077;28;20049;-81
2022/04/04 12:59:18;;;;;;;5.25;2.42;;;7.10;99.90;;;;;;5033717;28;20103;-81
2022/04/04 13:02:01;;;;;;;6.00;2.65;;;7.20;99.90;;;;;;5033808;28;20104;-81
2022/04/04 13:04:26;;;;;;;5.85;2.55;;;7.10;99.90;;;;;;5033740;28;20038;-81